sensor_id;sensor_type;location;lat;lon;timestamp;temperature;humidity
12827;DHT22;66927;48.812;9.118;2023-07-24T00:01:58;21.30;99.90
12827;DHT22;66927;48.812;9.118;2023-07-24T00:04:24;21.20;99.90
12827;DHT22;66927;48.812;9.118;2023-07-24T00:06:51;21.10;99.90
12827;DHT22;66927;48.812;9.118;2023-07-24T00:09:16;21.20;99.90
12827;DHT22;66927;48.812;9.118;2023-07-24T00:11:42;21.20;99.90
12827;DHT22;66927;48.812;9.118;2023-07-24T00:14:08;21.20;99.90
12827;DHT22;66927;48.812;9.118;2023-07-24T00:16:33;21.10;99.90
12827;DHT22;66927;48.812;9.118;2023-07-24T00:18:59;21.10;99.90
12827;DHT22;66927;48.812;9.118;2023-07-24T00:21:25;21.10;99.90
12827;DHT22;66927;48.812;9.118;2023-07-24T00:23:50;21.10;99.90
12827;DHT22;66927;48.812;9.118;2023-07-24T00:26:16;21.00;99.90
12827;DHT22;66927;48.812;9.118;2023-07-24T00:28:42;20.90;99.90
12827;DHT22;66927;48.812;9.118;2023-07-24T00:31:07;20.90;99.90
12827;DHT22;66927;48.812;9.118;2023-07-24T00:33:33;20.90;99.90
12827;DHT22;66927;48.812;9.118;2023-07-24T00:35:59;21.00;99.90
12827;DHT22;66927;48.812;9.118;2023-07-24T00:38:24;21.00;99.90
12827;DHT22;66927;48.812;9.118;2023-07-24T00:40:50;21.00;99.90
12827;DHT22;66927;48.812;9.118;2023-07-24T00:43:16;20.90;99.90
12827;DHT22;66927;48.812;9.118;2023-07-24T00:45:42;20.90;99.90
12827;DHT22;66927;48.812;9.118;2023-07-24T00:48:08;20.90;99.90
12827;DHT22;66927;48.812;9.118;2023-07-24T00:50:35;20.90;99.90
12827;DHT22;66927;48.812;9.118;2023-07-24T00:53:01;20.90;99.90
12827;DHT22;66927;48.812;9.118;2023-07-24T00:55:27;20.90;99.90
12827;DHT22;66927;48.812;9.118;2023-07-24T00:58:01;20.90;99.90
12827;DHT22;66927;48.812;9.118;2023-07-24T01:00:28;20.90;99.90
12827;DHT22;66927;48.812;9.118;2023-07-24T01:02:56;20.90;99.90
12827;DHT22;66927;48.812;9.118;2023-07-24T01:05:23;20.90;99.90
12827;DHT22;66927;48.812;9.118;2023-07-24T01:07:50;20.90;99.90
12827;DHT22;66927;48.812;9.118;2023-07-24T01:10:16;20.80;99.90
12827;DHT22;66927;48.812;9.118;2023-07-24T01:15:20;20.70;99.90
12827;DHT22;66927;48.812;9.118;2023-07-24T01:18:29;20.60;99.90
12827;DHT22;66927;48.812;9.118;2023-07-24T01:20:51;20.50;99.90
12827;DHT22;66927;48.812;9.118;2023-07-24T01:26:16;20.50;99.90
12827;DHT22;66927;48.812;9.118;2023-07-24T01:28:42;20.60;99.90
12827;DHT22;66927;48.812;9.118;2023-07-24T01:31:09;20.50;99.90
12827;DHT22;66927;48.812;9.118;2023-07-24T01:33:40;20.60;99.90
12827;DHT22;66927;48.812;9.118;2023-07-24T01:36:07;20.60;99.90
12827;DHT22;66927;48.812;9.118;2023-07-24T01:38:35;20.60;99.90
12827;DHT22;66927;48.812;9.118;2023-07-24T01:41:03;20.60;99.90
12827;DHT22;66927;48.812;9.118;2023-07-24T01:43:29;20.60;99.90
12827;DHT22;66927;48.812;9.118;2023-07-24T01:45:58;20.60;99.90
12827;DHT22;66927;48.812;9.118;2023-07-24T01:48:24;20.60;99.90
12827;DHT22;66927;48.812;9.118;2023-07-24T01:50:52;20.60;99.90
12827;DHT22;66927;48.812;9.118;2023-07-24T01:53:17;20.70;99.90
12827;DHT22;66927;48.812;9.118;2023-07-24T01:55:43;20.70;99.90
12827;DHT22;66927;48.812;9.118;2023-07-24T01:58:09;20.70;99.90
12827;DHT22;66927;48.812;9.118;2023-07-24T02:00:34;20.70;99.90
12827;DHT22;66927;48.812;9.118;2023-07-24T02:03:00;20.70;99.90
12827;DHT22;66927;48.812;9.118;2023-07-24T02:05:26;20.80;99.90
12827;DHT22;66927;48.812;9.118;2023-07-24T02:07:54;20.80;99.90
12827;DHT22;66927;48.812;9.118;2023-07-24T02:10:23;20.70;99.90
12827;DHT22;66927;48.812;9.118;2023-07-24T02:12:49;20.70;99.90
12827;DHT22;66927;48.812;9.118;2023-07-24T02:15:14;20.80;99.90
12827;DHT22;66927;48.812;9.118;2023-07-24T02:17:40;20.80;99.90
12827;DHT22;66927;48.812;9.118;2023-07-24T02:20:08;20.70;99.90
12827;DHT22;66927;48.812;9.118;2023-07-24T02:22:33;20.70;99.90
12827;DHT22;66927;48.812;9.118;2023-07-24T02:24:59;20.70;99.90
12827;DHT22;66927;48.812;9.118;2023-07-24T02:27:29;20.70;99.90
12827;DHT22;66927;48.812;9.118;2023-07-24T02:29:57;20.70;99.90
12827;DHT22;66927;48.812;9.118;2023-07-24T02:32:25;20.70;99.90
12827;DHT22;66927;48.812;9.118;2023-07-24T02:45:04;20.70;99.90
12827;DHT22;66927;48.812;9.118;2023-07-24T02:47:30;20.70;99.90
12827;DHT22;66927;48.812;9.118;2023-07-24T02:49:56;20.60;99.90
12827;DHT22;66927;48.812;9.118;2023-07-24T02:52:23;20.60;99.90
12827;DHT22;66927;48.812;9.118;2023-07-24T02:54:48;20.70;99.90
12827;DHT22;66927;48.812;9.118;2023-07-24T02:57:14;20.70;99.90
12827;DHT22;66927;48.812;9.118;2023-07-24T02:59:43;20.70;99.90
12827;DHT22;66927;48.812;9.118;2023-07-24T03:02:09;20.80;99.90
12827;DHT22;66927;48.812;9.118;2023-07-24T03:04:34;20.70;99.90
12827;DHT22;66927;48.812;9.118;2023-07-24T03:07:02;20.70;99.90
12827;DHT22;66927;48.812;9.118;2023-07-24T03:09:29;20.70;99.90
12827;DHT22;66927;48.812;9.118;2023-07-24T03:11:54;20.70;99.90
12827;DHT22;66927;48.812;9.118;2023-07-24T03:14:22;20.70;99.90
12827;DHT22;66927;48.812;9.118;2023-07-24T03:16:48;20.70;99.90
12827;DHT22;66927;48.812;9.118;2023-07-24T03:19:14;20.80;99.90
12827;DHT22;66927;48.812;9.118;2023-07-24T03:21:43;20.70;99.60
12827;DHT22;66927;48.812;9.118;2023-07-24T03:24:10;20.80;99.90
12827;DHT22;66927;48.812;9.118;2023-07-24T03:26:36;20.80;99.90
12827;DHT22;66927;48.812;9.118;2023-07-24T03:29:01;20.80;99.90
12827;DHT22;66927;48.812;9.118;2023-07-24T03:31:27;20.70;99.90
12827;DHT22;66927;48.812;9.118;2023-07-24T03:33:53;20.80;99.90
12827;DHT22;66927;48.812;9.118;2023-07-24T03:36:18;20.80;99.90
12827;DHT22;66927;48.812;9.118;2023-07-24T03:38:44;20.80;99.90
12827;DHT22;66927;48.812;9.118;2023-07-24T03:41:13;20.70;99.90
12827;DHT22;66927;48.812;9.118;2023-07-24T03:43:39;20.70;99.90
12827;DHT22;66927;48.812;9.118;2023-07-24T03:46:04;20.70;99.90
12827;DHT22;66927;48.812;9.118;2023-07-24T03:48:30;20.70;99.90
12827;DHT22;66927;48.812;9.118;2023-07-24T03:51:00;20.70;99.90
12827;DHT22;66927;48.812;9.118;2023-07-24T03:53:26;20.70;99.90
12827;DHT22;66927;48.812;9.118;2023-07-24T03:55:52;20.60;99.90
12827;DHT22;66927;48.812;9.118;2023-07-24T03:58:18;20.70;99.90
12827;DHT22;66927;48.812;9.118;2023-07-24T04:00:44;20.60;99.90
12827;DHT22;66927;48.812;9.118;2023-07-24T04:03:10;20.70;99.90
12827;DHT22;66927;48.812;9.118;2023-07-24T04:05:36;20.60;99.90
12827;DHT22;66927;48.812;9.118;2023-07-24T04:08:02;20.70;99.90
12827;DHT22;66927;48.812;9.118;2023-07-24T04:10:28;20.70;99.90
12827;DHT22;66927;48.812;9.118;2023-07-24T04:12:54;20.70;99.90
12827;DHT22;66927;48.812;9.118;2023-07-24T04:15:20;20.70;99.90
12827;DHT22;66927;48.812;9.118;2023-07-24T04:17:45;20.70;99.90
12827;DHT22;66927;48.812;9.118;2023-07-24T04:20:11;20.70;99.90
12827;DHT22;66927;48.812;9.118;2023-07-24T04:22:37;20.70;99.90
12827;DHT22;66927;48.812;9.118;2023-07-24T04:25:03;20.70;99.90
12827;DHT22;66927;48.812;9.118;2023-07-24T04:27:30;20.70;99.90
12827;DHT22;66927;48.812;9.118;2023-07-24T04:29:57;20.70;99.90
12827;DHT22;66927;48.812;9.118;2023-07-24T04:32:22;20.70;99.90
12827;DHT22;66927;48.812;9.118;2023-07-24T04:34:48;20.70;99.90
12827;DHT22;66927;48.812;9.118;2023-07-24T04:37:14;20.80;99.90
12827;DHT22;66927;48.812;9.118;2023-07-24T04:39:40;20.70;99.90
12827;DHT22;66927;48.812;9.118;2023-07-24T04:42:06;20.80;99.90
12827;DHT22;66927;48.812;9.118;2023-07-24T04:44:31;20.70;99.90
12827;DHT22;66927;48.812;9.118;2023-07-24T04:47:00;20.70;99.90
12827;DHT22;66927;48.812;9.118;2023-07-24T04:49:29;20.80;99.90
12827;DHT22;66927;48.812;9.118;2023-07-24T04:51:55;20.70;99.90
12827;DHT22;66927;48.812;9.118;2023-07-24T04:54:21;20.70;99.90
12827;DHT22;66927;48.812;9.118;2023-07-24T04:56:46;20.80;99.90
12827;DHT22;66927;48.812;9.118;2023-07-24T04:59:13;20.80;99.90
12827;DHT22;66927;48.812;9.118;2023-07-24T05:01:38;20.80;99.90
12827;DHT22;66927;48.812;9.118;2023-07-24T05:04:04;20.80;99.90
12827;DHT22;66927;48.812;9.118;2023-07-24T05:06:29;20.80;99.90
12827;DHT22;66927;48.812;9.118;2023-07-24T05:08:55;20.70;99.90
12827;DHT22;66927;48.812;9.118;2023-07-24T05:11:21;20.80;99.90
12827;DHT22;66927;48.812;9.118;2023-07-24T05:13:46;20.80;99.90
12827;DHT22;66927;48.812;9.118;2023-07-24T05:16:12;20.80;99.90
12827;DHT22;66927;48.812;9.118;2023-07-24T05:18:38;20.80;99.90
12827;DHT22;66927;48.812;9.118;2023-07-24T05:21:03;20.80;99.90
12827;DHT22;66927;48.812;9.118;2023-07-24T05:23:29;20.80;99.90
12827;DHT22;66927;48.812;9.118;2023-07-24T05:26:02;20.80;99.90
12827;DHT22;66927;48.812;9.118;2023-07-24T05:28:30;20.80;99.90
12827;DHT22;66927;48.812;9.118;2023-07-24T05:30:56;20.80;99.90
12827;DHT22;66927;48.812;9.118;2023-07-24T05:33:25;20.70;99.90
12827;DHT22;66927;48.812;9.118;2023-07-24T05:35:50;20.70;99.90
12827;DHT22;66927;48.812;9.118;2023-07-24T05:38:16;20.70;99.90
12827;DHT22;66927;48.812;9.118;2023-07-24T05:40:44;20.80;99.90
12827;DHT22;66927;48.812;9.118;2023-07-24T05:43:10;20.80;99.90
12827;DHT22;66927;48.812;9.118;2023-07-24T05:45:36;20.80;99.90
12827;DHT22;66927;48.812;9.118;2023-07-24T05:48:01;20.80;99.90
12827;DHT22;66927;48.812;9.118;2023-07-24T05:50:27;20.80;99.90
12827;DHT22;66927;48.812;9.118;2023-07-24T05:52:53;20.80;99.90
12827;DHT22;66927;48.812;9.118;2023-07-24T05:55:18;20.80;99.90
12827;DHT22;66927;48.812;9.118;2023-07-24T05:57:44;20.80;99.90
12827;DHT22;66927;48.812;9.118;2023-07-24T06:00:10;20.80;99.90
12827;DHT22;66927;48.812;9.118;2023-07-24T06:02:36;20.80;99.90
12827;DHT22;66927;48.812;9.118;2023-07-24T06:05:02;20.80;99.90
12827;DHT22;66927;48.812;9.118;2023-07-24T06:07:27;20.80;99.90
12827;DHT22;66927;48.812;9.118;2023-07-24T06:09:53;21.00;99.90
12827;DHT22;66927;48.812;9.118;2023-07-24T06:12:19;20.90;99.90
12827;DHT22;66927;48.812;9.118;2023-07-24T06:14:44;20.90;99.90
12827;DHT22;66927;48.812;9.118;2023-07-24T06:17:10;20.90;99.90
12827;DHT22;66927;48.812;9.118;2023-07-24T06:19:36;20.90;99.90
12827;DHT22;66927;48.812;9.118;2023-07-24T06:22:01;20.90;99.90
12827;DHT22;66927;48.812;9.118;2023-07-24T06:24:27;21.00;99.90
12827;DHT22;66927;48.812;9.118;2023-07-24T06:26:53;21.00;99.90
12827;DHT22;66927;48.812;9.118;2023-07-24T06:29:18;21.00;99.90
12827;DHT22;66927;48.812;9.118;2023-07-24T06:31:44;21.10;99.90
12827;DHT22;66927;48.812;9.118;2023-07-24T06:34:10;21.10;99.90
12827;DHT22;66927;48.812;9.118;2023-07-24T06:36:35;21.10;99.90
12827;DHT22;66927;48.812;9.118;2023-07-24T06:39:01;21.10;99.90
12827;DHT22;66927;48.812;9.118;2023-07-24T06:41:26;21.10;99.90
12827;DHT22;66927;48.812;9.118;2023-07-24T06:43:52;21.10;99.90
12827;DHT22;66927;48.812;9.118;2023-07-24T06:46:18;21.10;99.90
12827;DHT22;66927;48.812;9.118;2023-07-24T06:48:43;21.10;99.90
12827;DHT22;66927;48.812;9.118;2023-07-24T06:51:09;21.10;99.90
12827;DHT22;66927;48.812;9.118;2023-07-24T06:53:35;21.10;99.90
12827;DHT22;66927;48.812;9.118;2023-07-24T06:56:00;21.20;99.90
12827;DHT22;66927;48.812;9.118;2023-07-24T06:58:26;21.20;99.90
12827;DHT22;66927;48.812;9.118;2023-07-24T07:00:52;21.20;99.90
12827;DHT22;66927;48.812;9.118;2023-07-24T07:03:17;21.20;99.90
12827;DHT22;66927;48.812;9.118;2023-07-24T07:05:43;21.20;99.90
12827;DHT22;66927;48.812;9.118;2023-07-24T07:08:09;21.30;99.90
12827;DHT22;66927;48.812;9.118;2023-07-24T07:10:34;21.30;99.90
12827;DHT22;66927;48.812;9.118;2023-07-24T07:13:00;21.30;99.90
12827;DHT22;66927;48.812;9.118;2023-07-24T07:15:26;21.30;99.90
12827;DHT22;66927;48.812;9.118;2023-07-24T07:17:51;21.30;99.90
12827;DHT22;66927;48.812;9.118;2023-07-24T07:20:17;21.30;99.90
12827;DHT22;66927;48.812;9.118;2023-07-24T07:22:42;21.30;99.90
12827;DHT22;66927;48.812;9.118;2023-07-24T07:25:08;21.30;99.90
12827;DHT22;66927;48.812;9.118;2023-07-24T07:27:36;21.30;99.90
12827;DHT22;66927;48.812;9.118;2023-07-24T07:30:02;21.30;99.90
12827;DHT22;66927;48.812;9.118;2023-07-24T07:32:28;21.30;99.90
12827;DHT22;66927;48.812;9.118;2023-07-24T07:34:53;21.30;99.90
12827;DHT22;66927;48.812;9.118;2023-07-24T07:37:19;21.40;99.90
12827;DHT22;66927;48.812;9.118;2023-07-24T07:39:45;21.40;99.90
12827;DHT22;66927;48.812;9.118;2023-07-24T07:42:11;21.40;99.90
12827;DHT22;66927;48.812;9.118;2023-07-24T07:44:37;21.40;99.90
12827;DHT22;66927;48.812;9.118;2023-07-24T07:47:02;21.40;99.90
12827;DHT22;66927;48.812;9.118;2023-07-24T07:49:28;21.40;99.90
12827;DHT22;66927;48.812;9.118;2023-07-24T07:51:54;21.40;99.90
12827;DHT22;66927;48.812;9.118;2023-07-24T07:54:20;21.40;99.90
12827;DHT22;66927;48.812;9.118;2023-07-24T07:56:45;21.40;99.90
12827;DHT22;66927;48.812;9.118;2023-07-24T07:59:11;21.50;99.90
12827;DHT22;66927;48.812;9.118;2023-07-24T08:01:37;21.40;99.90
12827;DHT22;66927;48.812;9.118;2023-07-24T08:04:05;21.40;99.90
12827;DHT22;66927;48.812;9.118;2023-07-24T08:06:30;21.40;99.90
12827;DHT22;66927;48.812;9.118;2023-07-24T08:08:56;21.40;99.90
12827;DHT22;66927;48.812;9.118;2023-07-24T08:11:21;21.30;99.90
12827;DHT22;66927;48.812;9.118;2023-07-24T08:13:49;21.30;99.90
12827;DHT22;66927;48.812;9.118;2023-07-24T08:16:18;21.30;99.90
12827;DHT22;66927;48.812;9.118;2023-07-24T08:18:48;21.20;99.90
12827;DHT22;66927;48.812;9.118;2023-07-24T08:21:14;21.20;99.90
12827;DHT22;66927;48.812;9.118;2023-07-24T08:23:40;21.20;99.90
12827;DHT22;66927;48.812;9.118;2023-07-24T08:26:09;21.20;99.90
12827;DHT22;66927;48.812;9.118;2023-07-24T08:28:35;21.20;99.90
12827;DHT22;66927;48.812;9.118;2023-07-24T08:33:36;21.10;99.90
12827;DHT22;66927;48.812;9.118;2023-07-24T08:36:06;21.10;99.90
12827;DHT22;66927;48.812;9.118;2023-07-24T08:38:32;21.10;99.90
12827;DHT22;66927;48.812;9.118;2023-07-24T08:41:06;21.00;99.90
12827;DHT22;66927;48.812;9.118;2023-07-24T08:43:34;21.10;99.90
12827;DHT22;66927;48.812;9.118;2023-07-24T08:46:01;21.20;99.90
12827;DHT22;66927;48.812;9.118;2023-07-24T08:48:30;21.20;99.90
12827;DHT22;66927;48.812;9.118;2023-07-24T08:50:57;21.10;99.90
12827;DHT22;66927;48.812;9.118;2023-07-24T08:53:24;21.20;99.90
12827;DHT22;66927;48.812;9.118;2023-07-24T08:55:51;21.20;99.90
12827;DHT22;66927;48.812;9.118;2023-07-24T08:58:18;21.10;99.90
12827;DHT22;66927;48.812;9.118;2023-07-24T09:00:43;21.10;99.90
12827;DHT22;66927;48.812;9.118;2023-07-24T09:03:10;21.20;99.90
12827;DHT22;66927;48.812;9.118;2023-07-24T09:05:39;21.10;99.90
12827;DHT22;66927;48.812;9.118;2023-07-24T09:08:07;21.20;99.90
12827;DHT22;66927;48.812;9.118;2023-07-24T09:10:34;21.20;99.90
12827;DHT22;66927;48.812;9.118;2023-07-24T09:13:00;21.30;99.90
12827;DHT22;66927;48.812;9.118;2023-07-24T09:15:29;21.30;99.90
12827;DHT22;66927;48.812;9.118;2023-07-24T09:17:55;21.30;99.90
12827;DHT22;66927;48.812;9.118;2023-07-24T09:20:21;21.30;99.90
12827;DHT22;66927;48.812;9.118;2023-07-24T09:22:53;21.40;99.90
12827;DHT22;66927;48.812;9.118;2023-07-24T09:25:30;21.40;99.90
12827;DHT22;66927;48.812;9.118;2023-07-24T09:28:00;21.40;99.90
12827;DHT22;66927;48.812;9.118;2023-07-24T09:30:26;21.50;99.90
12827;DHT22;66927;48.812;9.118;2023-07-24T09:32:53;21.50;99.90
12827;DHT22;66927;48.812;9.118;2023-07-24T09:35:19;21.50;99.90
12827;DHT22;66927;48.812;9.118;2023-07-24T09:50:32;21.40;99.90
12827;DHT22;66927;48.812;9.118;2023-07-24T09:52:58;21.30;99.90
12827;DHT22;66927;48.812;9.118;2023-07-24T09:55:38;21.30;99.90
12827;DHT22;66927;48.812;9.118;2023-07-24T09:58:09;21.20;99.90
12827;DHT22;66927;48.812;9.118;2023-07-24T10:00:36;21.20;99.90
12827;DHT22;66927;48.812;9.118;2023-07-24T10:03:02;21.20;99.90
12827;DHT22;66927;48.812;9.118;2023-07-24T10:05:28;21.10;99.90
12827;DHT22;66927;48.812;9.118;2023-07-24T10:15:31;20.90;99.90
12827;DHT22;66927;48.812;9.118;2023-07-24T10:18:05;20.90;99.90
12827;DHT22;66927;48.812;9.118;2023-07-24T10:20:39;20.90;99.90
12827;DHT22;66927;48.812;9.118;2023-07-24T10:23:08;21.00;99.90
12827;DHT22;66927;48.812;9.118;2023-07-24T10:25:39;21.00;99.90
12827;DHT22;66927;48.812;9.118;2023-07-24T10:28:10;21.00;99.90
12827;DHT22;66927;48.812;9.118;2023-07-24T10:38:36;21.00;99.90
12827;DHT22;66927;48.812;9.118;2023-07-24T10:41:03;21.00;99.90
12827;DHT22;66927;48.812;9.118;2023-07-24T10:43:39;21.00;99.90
12827;DHT22;66927;48.812;9.118;2023-07-24T10:46:05;20.90;99.90
12827;DHT22;66927;48.812;9.118;2023-07-24T10:48:30;20.80;99.90
12827;DHT22;66927;48.812;9.118;2023-07-24T10:50:56;20.80;99.90
12827;DHT22;66927;48.812;9.118;2023-07-24T10:53:25;20.70;99.90
12827;DHT22;66927;48.812;9.118;2023-07-24T10:55:52;20.70;99.90
12827;DHT22;66927;48.812;9.118;2023-07-24T11:44:54;20.80;99.90
12827;DHT22;66927;48.812;9.118;2023-07-24T11:47:20;21.00;99.90
12827;DHT22;66927;48.812;9.118;2023-07-24T11:49:59;21.10;99.90
12827;DHT22;66927;48.812;9.118;2023-07-24T11:52:58;21.20;99.90
12827;DHT22;66927;48.812;9.118;2023-07-24T11:55:31;21.20;99.90
12827;DHT22;66927;48.812;9.118;2023-07-24T11:58:00;21.10;99.90
12827;DHT22;66927;48.812;9.118;2023-07-24T12:02:51;21.10;99.90
12827;DHT22;66927;48.812;9.118;2023-07-24T12:05:17;21.10;99.90
12827;DHT22;66927;48.812;9.118;2023-07-24T12:07:44;21.10;99.90
12827;DHT22;66927;48.812;9.118;2023-07-24T12:10:12;21.10;99.90
12827;DHT22;66927;48.812;9.118;2023-07-24T12:12:45;21.00;99.90
12827;DHT22;66927;48.812;9.118;2023-07-24T12:15:12;21.10;99.90
12827;DHT22;66927;48.812;9.118;2023-07-24T12:17:39;21.00;99.90
12827;DHT22;66927;48.812;9.118;2023-07-24T12:20:06;21.10;99.90
12827;DHT22;66927;48.812;9.118;2023-07-24T12:22:34;21.10;99.90
12827;DHT22;66927;48.812;9.118;2023-07-24T12:25:00;21.00;99.90
12827;DHT22;66927;48.812;9.118;2023-07-24T12:27:30;21.00;99.90
12827;DHT22;66927;48.812;9.118;2023-07-24T12:29:56;20.90;99.90
12827;DHT22;66927;48.812;9.118;2023-07-24T12:32:22;20.90;99.90
12827;DHT22;66927;48.812;9.118;2023-07-24T12:34:51;20.90;99.90
12827;DHT22;66927;48.812;9.118;2023-07-24T12:37:20;20.90;99.90
12827;DHT22;66927;48.812;9.118;2023-07-24T12:39:46;20.70;99.90
12827;DHT22;66927;48.812;9.118;2023-07-24T12:42:13;20.80;99.90
12827;DHT22;66927;48.812;9.118;2023-07-24T12:44:39;20.80;99.90
12827;DHT22;66927;48.812;9.118;2023-07-24T12:47:05;20.80;99.90
12827;DHT22;66927;48.812;9.118;2023-07-24T12:49:31;20.80;99.90
12827;DHT22;66927;48.812;9.118;2023-07-24T12:51:57;20.90;99.90
12827;DHT22;66927;48.812;9.118;2023-07-24T12:54:23;21.00;99.90
12827;DHT22;66927;48.812;9.118;2023-07-24T12:56:49;21.10;99.90
12827;DHT22;66927;48.812;9.118;2023-07-24T12:59:16;21.10;99.90
12827;DHT22;66927;48.812;9.118;2023-07-24T13:01:41;21.20;99.90
12827;DHT22;66927;48.812;9.118;2023-07-24T13:04:08;21.30;99.90
12827;DHT22;66927;48.812;9.118;2023-07-24T13:06:34;21.30;99.90
12827;DHT22;66927;48.812;9.118;2023-07-24T13:08:59;21.40;99.90
12827;DHT22;66927;48.812;9.118;2023-07-24T13:11:25;21.50;99.90
12827;DHT22;66927;48.812;9.118;2023-07-24T13:13:53;21.50;99.90
12827;DHT22;66927;48.812;9.118;2023-07-24T13:16:19;21.50;99.90
12827;DHT22;66927;48.812;9.118;2023-07-24T13:18:47;21.60;99.90
12827;DHT22;66927;48.812;9.118;2023-07-24T13:21:13;21.70;99.90
12827;DHT22;66927;48.812;9.118;2023-07-24T13:23:40;21.90;99.90
12827;DHT22;66927;48.812;9.118;2023-07-24T13:26:05;22.00;99.90
12827;DHT22;66927;48.812;9.118;2023-07-24T13:28:33;22.10;99.90
12827;DHT22;66927;48.812;9.118;2023-07-24T13:31:13;22.10;99.90
12827;DHT22;66927;48.812;9.118;2023-07-24T13:33:43;22.30;99.90
12827;DHT22;66927;48.812;9.118;2023-07-24T13:36:08;22.40;99.90
12827;DHT22;66927;48.812;9.118;2023-07-24T13:38:34;22.50;99.90
12827;DHT22;66927;48.812;9.118;2023-07-24T13:41:00;22.50;99.90
12827;DHT22;66927;48.812;9.118;2023-07-24T13:43:27;22.60;99.90
12827;DHT22;66927;48.812;9.118;2023-07-24T13:45:52;22.50;99.90
12827;DHT22;66927;48.812;9.118;2023-07-24T13:48:19;22.60;99.90
12827;DHT22;66927;48.812;9.118;2023-07-24T13:50:50;22.50;99.90
12827;DHT22;66927;48.812;9.118;2023-07-24T13:53:16;22.50;99.90
12827;DHT22;66927;48.812;9.118;2023-07-24T13:55:41;22.50;99.90
12827;DHT22;66927;48.812;9.118;2023-07-24T13:58:07;22.50;99.90
12827;DHT22;66927;48.812;9.118;2023-07-24T14:00:33;22.70;99.90
12827;DHT22;66927;48.812;9.118;2023-07-24T14:02:59;22.90;99.90
12827;DHT22;66927;48.812;9.118;2023-07-24T14:05:24;23.00;99.90
12827;DHT22;66927;48.812;9.118;2023-07-24T14:07:50;23.00;99.90
12827;DHT22;66927;48.812;9.118;2023-07-24T14:10:16;23.10;99.90
12827;DHT22;66927;48.812;9.118;2023-07-24T14:12:41;23.30;99.90
12827;DHT22;66927;48.812;9.118;2023-07-24T14:15:07;23.40;99.90
12827;DHT22;66927;48.812;9.118;2023-07-24T14:17:33;23.40;99.90
12827;DHT22;66927;48.812;9.118;2023-07-24T14:20:03;23.50;99.90
12827;DHT22;66927;48.812;9.118;2023-07-24T14:22:28;23.50;99.90
12827;DHT22;66927;48.812;9.118;2023-07-24T14:24:54;23.50;99.90
12827;DHT22;66927;48.812;9.118;2023-07-24T14:27:20;23.40;99.90
12827;DHT22;66927;48.812;9.118;2023-07-24T14:29:46;23.40;99.90
12827;DHT22;66927;48.812;9.118;2023-07-24T14:32:12;23.40;99.90
12827;DHT22;66927;48.812;9.118;2023-07-24T14:34:37;23.40;99.90
12827;DHT22;66927;48.812;9.118;2023-07-24T14:37:04;23.40;99.90
12827;DHT22;66927;48.812;9.118;2023-07-24T14:39:30;23.40;99.90
12827;DHT22;66927;48.812;9.118;2023-07-24T14:41:59;23.50;99.90
12827;DHT22;66927;48.812;9.118;2023-07-24T14:44:25;23.50;99.90
12827;DHT22;66927;48.812;9.118;2023-07-24T14:46:51;23.50;99.90
12827;DHT22;66927;48.812;9.118;2023-07-24T14:49:17;23.50;99.90
12827;DHT22;66927;48.812;9.118;2023-07-24T14:51:42;23.50;99.90
12827;DHT22;66927;48.812;9.118;2023-07-24T14:54:08;23.40;99.90
12827;DHT22;66927;48.812;9.118;2023-07-24T14:56:34;23.30;99.90
12827;DHT22;66927;48.812;9.118;2023-07-24T14:59:01;23.30;99.90
12827;DHT22;66927;48.812;9.118;2023-07-24T15:01:27;23.30;99.90
12827;DHT22;66927;48.812;9.118;2023-07-24T15:03:57;23.20;99.90
12827;DHT22;66927;48.812;9.118;2023-07-24T15:06:22;23.30;99.90
12827;DHT22;66927;48.812;9.118;2023-07-24T15:08:49;23.30;99.90
12827;DHT22;66927;48.812;9.118;2023-07-24T15:11:19;23.30;99.90
12827;DHT22;66927;48.812;9.118;2023-07-24T15:13:45;23.30;99.90
12827;DHT22;66927;48.812;9.118;2023-07-24T15:16:10;23.30;99.90
12827;DHT22;66927;48.812;9.118;2023-07-24T15:18:36;23.20;99.90
12827;DHT22;66927;48.812;9.118;2023-07-24T15:21:02;23.20;99.90
12827;DHT22;66927;48.812;9.118;2023-07-24T15:23:29;23.10;99.90
12827;DHT22;66927;48.812;9.118;2023-07-24T15:25:57;23.10;99.90
12827;DHT22;66927;48.812;9.118;2023-07-24T15:28:23;23.10;99.90
12827;DHT22;66927;48.812;9.118;2023-07-24T15:30:49;23.00;99.90
12827;DHT22;66927;48.812;9.118;2023-07-24T15:33:16;23.00;99.90
12827;DHT22;66927;48.812;9.118;2023-07-24T15:35:42;22.90;99.90
12827;DHT22;66927;48.812;9.118;2023-07-24T15:38:08;22.90;99.90
12827;DHT22;66927;48.812;9.118;2023-07-24T15:40:33;22.80;99.90
12827;DHT22;66927;48.812;9.118;2023-07-24T15:42:59;22.80;99.90
12827;DHT22;66927;48.812;9.118;2023-07-24T15:45:25;22.70;99.90
12827;DHT22;66927;48.812;9.118;2023-07-24T15:47:51;22.70;99.90
12827;DHT22;66927;48.812;9.118;2023-07-24T15:50:16;22.70;99.90
12827;DHT22;66927;48.812;9.118;2023-07-24T15:52:42;22.60;99.90
12827;DHT22;66927;48.812;9.118;2023-07-24T15:55:08;22.60;99.90
12827;DHT22;66927;48.812;9.118;2023-07-24T15:57:33;22.60;99.90
12827;DHT22;66927;48.812;9.118;2023-07-24T15:59:59;22.60;99.90
12827;DHT22;66927;48.812;9.118;2023-07-24T16:02:25;22.60;99.90
12827;DHT22;66927;48.812;9.118;2023-07-24T16:04:51;22.60;99.90
12827;DHT22;66927;48.812;9.118;2023-07-24T16:07:19;22.60;99.90
12827;DHT22;66927;48.812;9.118;2023-07-24T16:09:45;22.60;99.90
12827;DHT22;66927;48.812;9.118;2023-07-24T16:12:11;22.50;99.90
12827;DHT22;66927;48.812;9.118;2023-07-24T16:14:38;22.50;99.90
12827;DHT22;66927;48.812;9.118;2023-07-24T16:17:04;22.50;99.90
12827;DHT22;66927;48.812;9.118;2023-07-24T16:19:30;22.40;99.90
12827;DHT22;66927;48.812;9.118;2023-07-24T16:21:55;22.40;99.90
12827;DHT22;66927;48.812;9.118;2023-07-24T16:24:21;22.40;99.90
12827;DHT22;66927;48.812;9.118;2023-07-24T16:26:48;22.30;99.90
12827;DHT22;66927;48.812;9.118;2023-07-24T16:29:14;22.20;99.90
12827;DHT22;66927;48.812;9.118;2023-07-24T16:31:40;22.20;99.90
12827;DHT22;66927;48.812;9.118;2023-07-24T16:34:06;22.20;99.90
12827;DHT22;66927;48.812;9.118;2023-07-24T16:36:32;22.20;99.90
12827;DHT22;66927;48.812;9.118;2023-07-24T16:39:03;22.10;99.90
12827;DHT22;66927;48.812;9.118;2023-07-24T16:41:29;22.00;99.90
12827;DHT22;66927;48.812;9.118;2023-07-24T16:43:55;21.80;99.90
12827;DHT22;66927;48.812;9.118;2023-07-24T16:46:20;21.80;99.90
12827;DHT22;66927;48.812;9.118;2023-07-24T16:48:46;21.90;99.90
12827;DHT22;66927;48.812;9.118;2023-07-24T16:51:16;21.90;99.90
12827;DHT22;66927;48.812;9.118;2023-07-24T16:53:42;21.80;99.90
12827;DHT22;66927;48.812;9.118;2023-07-24T16:56:08;21.70;99.90
12827;DHT22;66927;48.812;9.118;2023-07-24T16:58:34;21.50;99.90
12827;DHT22;66927;48.812;9.118;2023-07-24T17:01:00;21.40;99.90
12827;DHT22;66927;48.812;9.118;2023-07-24T17:03:27;21.30;99.90